Crescent Beach, South Carolina
Current Conditions -  °F | °C
As of 9:53 PM on Saturday 25 Oct 2014 (Local Time) from KCRE Reporting Station
Clear Clear  
Wind Chill: 54°   Ceiling: Unl
Heat Index: 54°   Visibility: 10mi
Dew Point: 48°   Wind: 3mph
Humidity: 80%   Direction: 290°WNW
Pressure: 29.95"   Gusts: NA
Location:  33.8371°N, 78.6471°W
Report Text: KCRE 260153Z 29003KT 10SM CLR 12/09 A2995 RMK AO1 SLP141 T01220089
Loading
Personal Weather Stations






























Interactive Weather Map
Tropical Storm Tracking
New forecast layout! Learn more

10-Day Weather Forecast

Advertisements
Track Severe Weather on mobile